sensor_id;sensor_type;location;lat;lon;timestamp;pressure;altitude;pressure_sealevel;temperature;humidity
70488;BME280;57976;48.174;16.370;2024-02-21T00:00:20;100175.54;;;8.75;89.70
70488;BME280;57976;48.174;16.370;2024-02-21T00:02:24;100171.09;;;8.75;89.53
70488;BME280;57976;48.174;16.370;2024-02-21T00:04:29;100172.05;;;8.76;88.78
70488;BME280;57976;48.174;16.370;2024-02-21T00:06:34;100170.06;;;8.75;88.73
70488;BME280;57976;48.174;16.370;2024-02-21T00:08:41;100171.86;;;8.73;88.67
70488;BME280;57976;48.174;16.370;2024-02-21T00:10:46;100168.34;;;8.71;89.00
70488;BME280;57976;48.174;16.370;2024-02-21T00:12:51;100164.61;;;8.71;88.49
70488;BME280;57976;48.174;16.370;2024-02-21T00:14:56;100168.91;;;8.72;88.34
70488;BME280;57976;48.174;16.370;2024-02-21T00:17:00;100167.88;;;8.72;88.05
70488;BME280;57976;48.174;16.370;2024-02-21T00:19:05;100163.73;;;8.73;88.28
70488;BME280;57976;48.174;16.370;2024-02-21T00:21:10;100164.95;;;8.73;87.70
70488;BME280;57976;48.174;16.370;2024-02-21T00:23:15;100160.86;;;8.71;87.93
70488;BME280;57976;48.174;16.370;2024-02-21T00:25:19;100163.88;;;8.72;87.78
70488;BME280;57976;48.174;16.370;2024-02-21T00:27:25;100161.09;;;8.71;87.38
70488;BME280;57976;48.174;16.370;2024-02-21T00:29:29;100159.53;;;8.71;87.69
70488;BME280;57976;48.174;16.370;2024-02-21T00:31:34;100160.40;;;8.71;87.56
70488;BME280;57976;48.174;16.370;2024-02-21T00:33:39;100157.94;;;8.71;87.30
70488;BME280;57976;48.174;16.370;2024-02-21T00:35:43;100154.36;;;8.70;87.24
70488;BME280;57976;48.174;16.370;2024-02-21T00:37:48;100154.86;;;8.70;87.04
70488;BME280;57976;48.174;16.370;2024-02-21T00:39:53;100147.40;;;8.69;87.31
70488;BME280;57976;48.174;16.370;2024-02-21T00:41:58;100144.64;;;8.69;87.31
70488;BME280;57976;48.174;16.370;2024-02-21T00:44:03;100143.53;;;8.70;86.91
70488;BME280;57976;48.174;16.370;2024-02-21T00:46:08;100147.98;;;8.71;86.77
70488;BME280;57976;48.174;16.370;2024-02-21T00:48:12;100145.50;;;8.73;86.36
70488;BME280;57976;48.174;16.370;2024-02-21T00:50:17;100143.91;;;8.73;85.93
70488;BME280;57976;48.174;16.370;2024-02-21T00:52:22;100138.55;;;8.73;85.86
70488;BME280;57976;48.174;16.370;2024-02-21T00:54:27;100138.98;;;8.72;85.94
70488;BME280;57976;48.174;16.370;2024-02-21T00:56:44;100132.27;;;8.72;85.75
70488;BME280;57976;48.174;16.370;2024-02-21T00:58:48;100131.84;;;8.73;85.62
70488;BME280;57976;48.174;16.370;2024-02-21T01:00:53;100132.80;;;8.74;85.29
70488;BME280;57976;48.174;16.370;2024-02-21T01:02:58;100135.02;;;8.75;85.26
70488;BME280;57976;48.174;16.370;2024-02-21T01:05:03;100132.44;;;8.77;84.96
70488;BME280;57976;48.174;16.370;2024-02-21T01:07:08;100125.55;;;8.80;85.25
70488;BME280;57976;48.174;16.370;2024-02-21T01:09:13;100125.85;;;8.80;84.55
70488;BME280;57976;48.174;16.370;2024-02-21T01:11:18;100128.36;;;8.79;84.59
70488;BME280;57976;48.174;16.370;2024-02-21T01:13:23;100125.30;;;8.79;84.27
70488;BME280;57976;48.174;16.370;2024-02-21T01:15:27;100122.96;;;8.78;83.90
70488;BME280;57976;48.174;16.370;2024-02-21T01:17:32;100121.81;;;8.77;84.21
70488;BME280;57976;48.174;16.370;2024-02-21T01:19:37;100116.20;;;8.77;84.03
70488;BME280;57976;48.174;16.370;2024-02-21T01:21:41;100120.52;;;8.74;84.02
70488;BME280;57976;48.174;16.370;2024-02-21T01:23:46;100115.80;;;8.76;83.66
70488;BME280;57976;48.174;16.370;2024-02-21T01:25:51;100111.71;;;8.74;84.10
70488;BME280;57976;48.174;16.370;2024-02-21T01:27:56;100110.56;;;8.73;84.20
70488;BME280;57976;48.174;16.370;2024-02-21T01:30:00;100112.27;;;8.74;84.42
70488;BME280;57976;48.174;16.370;2024-02-21T01:32:06;100108.87;;;8.74;84.18
70488;BME280;57976;48.174;16.370;2024-02-21T01:34:11;100106.67;;;8.75;84.22
70488;BME280;57976;48.174;16.370;2024-02-21T01:36:16;100106.23;;;8.75;84.56
70488;BME280;57976;48.174;16.370;2024-02-21T01:38:20;100107.90;;;8.75;84.33
70488;BME280;57976;48.174;16.370;2024-02-21T01:40:25;100102.68;;;8.74;83.93
70488;BME280;57976;48.174;16.370;2024-02-21T01:42:30;100101.30;;;8.72;84.07
70488;BME280;57976;48.174;16.370;2024-02-21T01:44:34;100102.77;;;8.72;84.07
70488;BME280;57976;48.174;16.370;2024-02-21T01:46:39;100100.39;;;8.72;84.24
70488;BME280;57976;48.174;16.370;2024-02-21T01:48:45;100100.92;;;8.72;84.00
70488;BME280;57976;48.174;16.370;2024-02-21T01:50:50;100094.63;;;8.72;83.95
70488;BME280;57976;48.174;16.370;2024-02-21T01:52:55;100093.04;;;8.70;84.44
70488;BME280;57976;48.174;16.370;2024-02-21T01:55:01;100091.71;;;8.69;84.57
70488;BME280;57976;48.174;16.370;2024-02-21T01:57:06;100089.79;;;8.69;84.31
70488;BME280;57976;48.174;16.370;2024-02-21T01:59:11;100088.83;;;8.70;84.50
70488;BME280;57976;48.174;16.370;2024-02-21T02:01:16;100083.61;;;8.70;84.64
70488;BME280;57976;48.174;16.370;2024-02-21T02:03:28;100080.58;;;8.72;84.58
70488;BME280;57976;48.174;16.370;2024-02-21T02:05:33;100080.23;;;8.71;84.79
70488;BME280;57976;48.174;16.370;2024-02-21T02:07:38;100079.42;;;8.70;84.11
70488;BME280;57976;48.174;16.370;2024-02-21T02:09:43;100073.03;;;8.69;84.40
70488;BME280;57976;48.174;16.370;2024-02-21T02:11:48;100071.07;;;8.69;84.34
70488;BME280;57976;48.174;16.370;2024-02-21T02:13:53;100070.83;;;8.67;84.29
70488;BME280;57976;48.174;16.370;2024-02-21T02:15:57;100074.91;;;8.67;84.16
70488;BME280;57976;48.174;16.370;2024-02-21T02:18:03;100067.05;;;8.66;84.31
70488;BME280;57976;48.174;16.370;2024-02-21T02:20:09;100068.98;;;8.67;83.89
70488;BME280;57976;48.174;16.370;2024-02-21T02:22:17;100064.06;;;8.66;83.65
70488;BME280;57976;48.174;16.370;2024-02-21T02:24:25;100066.73;;;8.65;83.86
70488;BME280;57976;48.174;16.370;2024-02-21T02:26:30;100065.46;;;8.65;84.03
70488;BME280;57976;48.174;16.370;2024-02-21T02:28:34;100064.63;;;8.66;83.77
70488;BME280;57976;48.174;16.370;2024-02-21T02:30:39;100066.16;;;8.67;83.99
70488;BME280;57976;48.174;16.370;2024-02-21T02:32:47;100060.81;;;8.67;83.98
70488;BME280;57976;48.174;16.370;2024-02-21T02:34:52;100062.83;;;8.68;83.76
70488;BME280;57976;48.174;16.370;2024-02-21T02:36:56;100061.62;;;8.66;83.57
70488;BME280;57976;48.174;16.370;2024-02-21T02:39:01;100060.26;;;8.66;83.80
70488;BME280;57976;48.174;16.370;2024-02-21T02:41:06;100063.36;;;8.66;83.73
70488;BME280;57976;48.174;16.370;2024-02-21T02:43:11;100059.37;;;8.67;83.93
70488;BME280;57976;48.174;16.370;2024-02-21T02:45:16;100061.70;;;8.67;83.70
70488;BME280;57976;48.174;16.370;2024-02-21T02:47:20;100062.70;;;8.66;83.00
70488;BME280;57976;48.174;16.370;2024-02-21T02:49:25;100056.06;;;8.63;82.53
70488;BME280;57976;48.174;16.370;2024-02-21T02:51:30;100059.79;;;8.63;82.55
70488;BME280;57976;48.174;16.370;2024-02-21T02:53:35;100055.67;;;8.62;82.51
70488;BME280;57976;48.174;16.370;2024-02-21T02:55:39;100051.98;;;8.62;83.15
70488;BME280;57976;48.174;16.370;2024-02-21T02:57:44;100048.81;;;8.64;83.34
70488;BME280;57976;48.174;16.370;2024-02-21T02:59:50;100049.70;;;8.65;82.93
70488;BME280;57976;48.174;16.370;2024-02-21T03:01:55;100050.79;;;8.66;82.57
70488;BME280;57976;48.174;16.370;2024-02-21T03:04:00;100049.00;;;8.65;82.81
70488;BME280;57976;48.174;16.370;2024-02-21T03:06:05;100045.24;;;8.64;82.79
70488;BME280;57976;48.174;16.370;2024-02-21T03:08:10;100043.09;;;8.64;82.75
70488;BME280;57976;48.174;16.370;2024-02-21T03:10:15;100037.50;;;8.66;82.69
70488;BME280;57976;48.174;16.370;2024-02-21T03:12:20;100034.98;;;8.67;82.99
70488;BME280;57976;48.174;16.370;2024-02-21T03:14:25;100031.42;;;8.69;82.74
70488;BME280;57976;48.174;16.370;2024-02-21T03:16:29;100029.06;;;8.69;82.93
70488;BME280;57976;48.174;16.370;2024-02-21T03:18:34;100030.83;;;8.71;82.43
70488;BME280;57976;48.174;16.370;2024-02-21T03:20:39;100032.16;;;8.70;81.88
70488;BME280;57976;48.174;16.370;2024-02-21T03:22:44;100028.20;;;8.69;81.87
70488;BME280;57976;48.174;16.370;2024-02-21T03:24:48;100028.11;;;8.68;81.80
70488;BME280;57976;48.174;16.370;2024-02-21T03:26:53;100028.30;;;8.69;81.68
70488;BME280;57976;48.174;16.370;2024-02-21T03:28:58;100027.45;;;8.71;81.75
70488;BME280;57976;48.174;16.370;2024-02-21T03:31:03;100025.96;;;8.70;81.54
70488;BME280;57976;48.174;16.370;2024-02-21T03:33:08;100028.17;;;8.69;81.61
70488;BME280;57976;48.174;16.370;2024-02-21T03:35:12;100028.79;;;8.70;81.73
70488;BME280;57976;48.174;16.370;2024-02-21T03:37:17;100031.92;;;8.69;81.53
70488;BME280;57976;48.174;16.370;2024-02-21T03:39:22;100038.90;;;8.68;81.53
70488;BME280;57976;48.174;16.370;2024-02-21T03:41:27;100033.98;;;8.68;81.78
70488;BME280;57976;48.174;16.370;2024-02-21T03:43:31;100033.19;;;8.67;81.94
70488;BME280;57976;48.174;16.370;2024-02-21T03:45:36;100034.02;;;8.67;82.00
70488;BME280;57976;48.174;16.370;2024-02-21T03:47:40;100040.66;;;8.67;82.16
70488;BME280;57976;48.174;16.370;2024-02-21T03:49:45;100045.48;;;8.65;82.43
70488;BME280;57976;48.174;16.370;2024-02-21T03:51:50;100048.38;;;8.64;82.75
70488;BME280;57976;48.174;16.370;2024-02-21T03:53:55;100050.39;;;8.64;82.87
70488;BME280;57976;48.174;16.370;2024-02-21T03:56:02;100049.69;;;8.63;82.92
70488;BME280;57976;48.174;16.370;2024-02-21T03:58:07;100051.58;;;8.62;82.99
70488;BME280;57976;48.174;16.370;2024-02-21T04:00:13;100050.05;;;8.60;83.10
70488;BME280;57976;48.174;16.370;2024-02-21T04:02:18;100046.52;;;8.59;83.15
70488;BME280;57976;48.174;16.370;2024-02-21T04:04:23;100047.25;;;8.57;83.81
70488;BME280;57976;48.174;16.370;2024-02-21T04:06:28;100044.50;;;8.56;83.86
70488;BME280;57976;48.174;16.370;2024-02-21T04:08:32;100042.25;;;8.56;83.74
70488;BME280;57976;48.174;16.370;2024-02-21T04:10:37;100043.69;;;8.52;84.23
70488;BME280;57976;48.174;16.370;2024-02-21T04:12:42;100043.70;;;8.51;84.11
70488;BME280;57976;48.174;16.370;2024-02-21T04:14:47;100042.48;;;8.47;84.54
70488;BME280;57976;48.174;16.370;2024-02-21T04:16:51;100043.84;;;8.45;84.83
70488;BME280;57976;48.174;16.370;2024-02-21T04:18:56;100041.40;;;8.41;84.94
70488;BME280;57976;48.174;16.370;2024-02-21T04:21:04;100044.70;;;8.39;85.15
70488;BME280;57976;48.174;16.370;2024-02-21T04:23:09;100047.11;;;8.38;85.36
70488;BME280;57976;48.174;16.370;2024-02-21T04:25:15;100042.30;;;8.37;85.44
70488;BME280;57976;48.174;16.370;2024-02-21T04:27:20;100036.59;;;8.35;85.51
70488;BME280;57976;48.174;16.370;2024-02-21T04:29:24;100039.58;;;8.34;85.59
70488;BME280;57976;48.174;16.370;2024-02-21T04:31:29;100045.84;;;8.35;85.59
70488;BME280;57976;48.174;16.370;2024-02-21T04:33:36;100046.70;;;8.35;85.70
70488;BME280;57976;48.174;16.370;2024-02-21T04:35:41;100044.29;;;8.36;85.45
70488;BME280;57976;48.174;16.370;2024-02-21T04:37:45;100039.27;;;8.37;85.56
70488;BME280;57976;48.174;16.370;2024-02-21T04:39:51;100037.97;;;8.39;85.45
70488;BME280;57976;48.174;16.370;2024-02-21T04:41:55;100039.70;;;8.41;85.61
70488;BME280;57976;48.174;16.370;2024-02-21T04:44:00;100039.04;;;8.42;85.43
70488;BME280;57976;48.174;16.370;2024-02-21T04:46:06;100034.73;;;8.41;85.21
70488;BME280;57976;48.174;16.370;2024-02-21T04:48:10;100033.67;;;8.41;85.22
70488;BME280;57976;48.174;16.370;2024-02-21T04:50:15;100033.89;;;8.42;85.03
70488;BME280;57976;48.174;16.370;2024-02-21T04:52:20;100027.17;;;8.41;84.82
70488;BME280;57976;48.174;16.370;2024-02-21T04:54:25;100028.48;;;8.41;85.03
70488;BME280;57976;48.174;16.370;2024-02-21T04:56:29;100030.08;;;8.41;84.96
70488;BME280;57976;48.174;16.370;2024-02-21T04:58:37;100031.38;;;8.42;84.64
70488;BME280;57976;48.174;16.370;2024-02-21T05:00:41;100029.09;;;8.42;84.62
70488;BME280;57976;48.174;16.370;2024-02-21T05:02:46;100026.88;;;8.45;84.31
70488;BME280;57976;48.174;16.370;2024-02-21T05:04:52;100027.74;;;8.45;84.30
70488;BME280;57976;48.174;16.370;2024-02-21T05:06:56;100019.27;;;8.46;84.24
70488;BME280;57976;48.174;16.370;2024-02-21T05:09:01;100016.59;;;8.48;83.92
70488;BME280;57976;48.174;16.370;2024-02-21T05:11:06;100019.40;;;8.48;83.98
70488;BME280;57976;48.174;16.370;2024-02-21T05:13:11;100023.95;;;8.49;83.38
70488;BME280;57976;48.174;16.370;2024-02-21T05:15:16;100021.13;;;8.48;83.32
70488;BME280;57976;48.174;16.370;2024-02-21T05:17:21;100020.66;;;8.49;83.20
70488;BME280;57976;48.174;16.370;2024-02-21T05:19:26;100015.95;;;8.50;83.37
70488;BME280;57976;48.174;16.370;2024-02-21T05:21:30;100011.13;;;8.51;83.24
70488;BME280;57976;48.174;16.370;2024-02-21T05:23:35;100014.25;;;8.53;83.08
70488;BME280;57976;48.174;16.370;2024-02-21T05:25:40;100008.64;;;8.52;82.94
70488;BME280;57976;48.174;16.370;2024-02-21T05:27:45;100007.11;;;8.53;82.92
70488;BME280;57976;48.174;16.370;2024-02-21T05:29:50;100001.46;;;8.53;82.67
70488;BME280;57976;48.174;16.370;2024-02-21T05:31:57;100006.71;;;8.52;82.45
70488;BME280;57976;48.174;16.370;2024-02-21T05:34:03;100002.98;;;8.52;82.90
70488;BME280;57976;48.174;16.370;2024-02-21T05:36:08;100006.11;;;8.53;82.60
70488;BME280;57976;48.174;16.370;2024-02-21T05:38:13;100004.15;;;8.55;82.70
70488;BME280;57976;48.174;16.370;2024-02-21T05:40:18;100005.67;;;8.57;82.30
70488;BME280;57976;48.174;16.370;2024-02-21T05:42:23;100003.90;;;8.58;82.47
70488;BME280;57976;48.174;16.370;2024-02-21T05:44:27;100006.05;;;8.60;82.44
70488;BME280;57976;48.174;16.370;2024-02-21T05:46:32;100003.86;;;8.62;82.15
70488;BME280;57976;48.174;16.370;2024-02-21T05:48:37;100003.64;;;8.64;82.29
70488;BME280;57976;48.174;16.370;2024-02-21T05:50:43;99998.40;;;8.66;81.85
70488;BME280;57976;48.174;16.370;2024-02-21T05:52:48;99997.02;;;8.67;81.30
70488;BME280;57976;48.174;16.370;2024-02-21T05:54:53;99997.09;;;8.68;81.14
70488;BME280;57976;48.174;16.370;2024-02-21T05:56:58;99999.52;;;8.70;81.37
70488;BME280;57976;48.174;16.370;2024-02-21T05:59:02;100003.98;;;8.71;80.81
70488;BME280;57976;48.174;16.370;2024-02-21T06:01:07;99999.98;;;8.74;81.01
70488;BME280;57976;48.174;16.370;2024-02-21T06:03:12;99998.48;;;8.76;80.94
70488;BME280;57976;48.174;16.370;2024-02-21T06:05:18;99995.52;;;8.77;80.59
70488;BME280;57976;48.174;16.370;2024-02-21T06:07:23;100001.27;;;8.78;80.47
70488;BME280;57976;48.174;16.370;2024-02-21T06:09:28;99998.98;;;8.78;79.19
70488;BME280;57976;48.174;16.370;2024-02-21T06:11:33;99993.14;;;8.75;79.05
70488;BME280;57976;48.174;16.370;2024-02-21T06:13:40;99995.80;;;8.75;79.09
70488;BME280;57976;48.174;16.370;2024-02-21T06:15:45;99990.98;;;8.75;79.20
70488;BME280;57976;48.174;16.370;2024-02-21T06:17:50;99990.79;;;8.75;78.89
70488;BME280;57976;48.174;16.370;2024-02-21T06:19:55;99987.00;;;8.76;78.53
70488;BME280;57976;48.174;16.370;2024-02-21T06:22:00;99985.41;;;8.76;78.17
70488;BME280;57976;48.174;16.370;2024-02-21T06:24:05;99987.95;;;8.77;78.06
70488;BME280;57976;48.174;16.370;2024-02-21T06:26:10;99985.92;;;8.79;77.80
70488;BME280;57976;48.174;16.370;2024-02-21T06:28:15;99987.02;;;8.81;78.07
70488;BME280;57976;48.174;16.370;2024-02-21T06:30:20;99986.64;;;8.82;77.56
70488;BME280;57976;48.174;16.370;2024-02-21T06:32:25;99985.27;;;8.83;77.83
70488;BME280;57976;48.174;16.370;2024-02-21T06:34:31;99988.45;;;8.85;77.34
70488;BME280;57976;48.174;16.370;2024-02-21T06:36:38;99983.71;;;8.85;77.22
70488;BME280;57976;48.174;16.370;2024-02-21T06:38:43;99979.02;;;8.85;77.18
70488;BME280;57976;48.174;16.370;2024-02-21T06:40:48;99981.41;;;8.86;76.21
70488;BME280;57976;48.174;16.370;2024-02-21T06:42:53;99982.73;;;8.89;77.42
70488;BME280;57976;48.174;16.370;2024-02-21T06:44:57;99980.74;;;8.92;76.61
70488;BME280;57976;48.174;16.370;2024-02-21T06:47:02;99981.04;;;8.94;76.75
70488;BME280;57976;48.174;16.370;2024-02-21T06:49:07;99983.16;;;8.94;76.20
70488;BME280;57976;48.174;16.370;2024-02-21T06:51:12;99978.75;;;8.92;75.97
70488;BME280;57976;48.174;16.370;2024-02-21T06:53:17;99980.42;;;8.90;75.58
70488;BME280;57976;48.174;16.370;2024-02-21T06:55:22;99977.60;;;8.90;75.27
70488;BME280;57976;48.174;16.370;2024-02-21T06:57:28;99979.27;;;8.88;75.19
70488;BME280;57976;48.174;16.370;2024-02-21T06:59:32;99980.94;;;8.87;74.79
70488;BME280;57976;48.174;16.370;2024-02-21T07:01:37;99977.59;;;8.87;75.26
70488;BME280;57976;48.174;16.370;2024-02-21T07:03:42;99979.02;;;8.85;75.42
70488;BME280;57976;48.174;16.370;2024-02-21T07:05:47;99979.58;;;8.85;74.81
70488;BME280;57976;48.174;16.370;2024-02-21T07:07:52;99975.27;;;8.84;75.28
70488;BME280;57976;48.174;16.370;2024-02-21T07:09:57;99973.24;;;8.85;75.80
70488;BME280;57976;48.174;16.370;2024-02-21T07:12:02;99975.17;;;8.85;74.95
70488;BME280;57976;48.174;16.370;2024-02-21T07:14:07;99968.23;;;8.85;75.22
70488;BME280;57976;48.174;16.370;2024-02-21T07:16:12;99966.90;;;8.84;75.22
70488;BME280;57976;48.174;16.370;2024-02-21T07:18:17;99969.34;;;8.86;75.72
70488;BME280;57976;48.174;16.370;2024-02-21T07:20:22;99971.30;;;8.86;75.61
70488;BME280;57976;48.174;16.370;2024-02-21T07:22:27;99973.52;;;8.88;75.54
70488;BME280;57976;48.174;16.370;2024-02-21T07:24:32;99974.75;;;8.88;75.29
70488;BME280;57976;48.174;16.370;2024-02-21T07:26:36;99965.76;;;8.88;75.25
70488;BME280;57976;48.174;16.370;2024-02-21T07:28:41;99966.05;;;8.89;75.12
70488;BME280;57976;48.174;16.370;2024-02-21T07:30:46;99963.02;;;8.91;75.43
70488;BME280;57976;48.174;16.370;2024-02-21T07:32:51;99961.44;;;8.94;75.28
70488;BME280;57976;48.174;16.370;2024-02-21T07:34:56;99961.41;;;8.99;75.24
70488;BME280;57976;48.174;16.370;2024-02-21T07:37:01;99959.37;;;9.02;75.22
70488;BME280;57976;48.174;16.370;2024-02-21T07:39:06;99960.15;;;9.03;74.95
70488;BME280;57976;48.174;16.370;2024-02-21T07:41:11;99961.30;;;9.05;75.01
70488;BME280;57976;48.174;16.370;2024-02-21T07:43:16;99961.23;;;9.10;74.70
70488;BME280;57976;48.174;16.370;2024-02-21T07:45:21;99959.16;;;9.15;74.89
70488;BME280;57976;48.174;16.370;2024-02-21T07:47:26;99960.86;;;9.18;74.93
70488;BME280;57976;48.174;16.370;2024-02-21T07:49:30;99960.40;;;9.22;74.59
70488;BME280;57976;48.174;16.370;2024-02-21T07:51:35;99962.78;;;9.24;74.27
70488;BME280;57976;48.174;16.370;2024-02-21T07:53:41;99962.65;;;9.27;74.37
70488;BME280;57976;48.174;16.370;2024-02-21T07:55:46;99965.86;;;9.30;74.10
70488;BME280;57976;48.174;16.370;2024-02-21T07:57:51;99961.50;;;9.35;74.12
70488;BME280;57976;48.174;16.370;2024-02-21T07:59:56;99960.45;;;9.40;73.65
70488;BME280;57976;48.174;16.370;2024-02-21T08:02:01;99960.07;;;9.45;73.25
70488;BME280;57976;48.174;16.370;2024-02-21T08:04:06;99960.52;;;9.49;73.32
70488;BME280;57976;48.174;16.370;2024-02-21T08:06:13;99957.86;;;9.59;72.72
70488;BME280;57976;48.174;16.370;2024-02-21T08:08:18;99957.86;;;9.66;72.36
70488;BME280;57976;48.174;16.370;2024-02-21T08:10:23;99958.16;;;9.73;72.34
70488;BME280;57976;48.174;16.370;2024-02-21T08:12:28;99953.65;;;9.79;71.99
70488;BME280;57976;48.174;16.370;2024-02-21T08:14:33;99949.63;;;9.84;70.99
70488;BME280;57976;48.174;16.370;2024-02-21T08:16:37;99949.76;;;9.84;70.68
70488;BME280;57976;48.174;16.370;2024-02-21T08:18:43;99954.23;;;9.87;70.68
70488;BME280;57976;48.174;16.370;2024-02-21T08:20:48;99946.27;;;9.88;69.57
70488;BME280;57976;48.174;16.370;2024-02-21T08:22:52;99946.17;;;9.93;69.69
70488;BME280;57976;48.174;16.370;2024-02-21T08:24:57;99942.33;;;9.96;70.42
70488;BME280;57976;48.174;16.370;2024-02-21T08:27:02;99941.25;;;10.03;69.46
70488;BME280;57976;48.174;16.370;2024-02-21T08:29:07;99944.20;;;10.11;69.51
70488;BME280;57976;48.174;16.370;2024-02-21T08:31:12;99940.19;;;10.21;69.05
70488;BME280;57976;48.174;16.370;2024-02-21T08:33:22;99938.98;;;10.30;68.37
70488;BME280;57976;48.174;16.370;2024-02-21T08:35:27;99930.77;;;10.38;67.76
70488;BME280;57976;48.174;16.370;2024-02-21T08:37:34;99932.02;;;10.49;66.99
70488;BME280;57976;48.174;16.370;2024-02-21T08:39:39;99929.70;;;10.60;67.11
70488;BME280;57976;48.174;16.370;2024-02-21T08:41:44;99942.05;;;10.68;64.51
70488;BME280;57976;48.174;16.370;2024-02-21T08:44:01;99925.08;;;10.75;64.87
70488;BME280;57976;48.174;16.370;2024-02-21T08:46:06;99925.29;;;10.81;62.51
70488;BME280;57976;48.174;16.370;2024-02-21T08:48:11;99919.98;;;10.85;63.41
70488;BME280;57976;48.174;16.370;2024-02-21T08:50:16;99912.89;;;10.91;63.98
70488;BME280;57976;48.174;16.370;2024-02-21T08:52:31;99917.17;;;10.98;63.80
70488;BME280;57976;48.174;16.370;2024-02-21T08:54:36;99917.41;;;11.07;63.38
70488;BME280;57976;48.174;16.370;2024-02-21T08:56:41;99920.94;;;11.12;61.02
70488;BME280;57976;48.174;16.370;2024-02-21T08:58:46;99923.75;;;11.14;61.48
70488;BME280;57976;48.174;16.370;2024-02-21T09:00:51;99923.76;;;11.14;60.00
70488;BME280;57976;48.174;16.370;2024-02-21T09:02:55;99912.80;;;11.07;60.52
70488;BME280;57976;48.174;16.370;2024-02-21T09:05:00;99908.02;;;11.07;61.21
70488;BME280;57976;48.174;16.370;2024-02-21T09:07:05;99910.21;;;11.09;61.53
70488;BME280;57976;48.174;16.370;2024-02-21T09:09:10;99902.41;;;11.09;61.40
70488;BME280;57976;48.174;16.370;2024-02-21T09:11:15;99901.74;;;11.12;61.42
70488;BME280;57976;48.174;16.370;2024-02-21T09:13:20;99906.09;;;11.16;61.08
70488;BME280;57976;48.174;16.370;2024-02-21T09:15:25;99904.02;;;11.20;60.26
70488;BME280;57976;48.174;16.370;2024-02-21T09:17:29;99892.94;;;11.21;61.05
70488;BME280;57976;48.174;16.370;2024-02-21T09:19:34;99895.20;;;11.30;61.07
70488;BME280;57976;48.174;16.370;2024-02-21T09:21:39;99896.55;;;11.38;60.65
70488;BME280;57976;48.174;16.370;2024-02-21T09:23:44;99890.60;;;11.44;60.12
70488;BME280;57976;48.174;16.370;2024-02-21T09:25:49;99886.91;;;11.50;60.36
70488;BME280;57976;48.174;16.370;2024-02-21T09:27:55;99881.21;;;11.55;60.63
70488;BME280;57976;48.174;16.370;2024-02-21T09:30:00;99885.44;;;11.61;60.19
70488;BME280;57976;48.174;16.370;2024-02-21T09:32:05;99880.32;;;11.70;60.87
70488;BME280;57976;48.174;16.370;2024-02-21T09:34:10;99888.76;;;11.76;59.48
70488;BME280;57976;48.174;16.370;2024-02-21T09:36:15;99885.84;;;11.77;58.94
70488;BME280;57976;48.174;16.370;2024-02-21T09:38:23;99883.86;;;11.71;58.78
70488;BME280;57976;48.174;16.370;2024-02-21T09:40:28;99886.83;;;11.68;59.17
70488;BME280;57976;48.174;16.370;2024-02-21T09:42:38;99888.50;;;11.64;59.05
70488;BME280;57976;48.174;16.370;2024-02-21T09:44:43;99883.16;;;11.63;59.71
70488;BME280;57976;48.174;16.370;2024-02-21T09:46:55;99884.67;;;11.70;60.08
70488;BME280;57976;48.174;16.370;2024-02-21T09:49:12;99877.95;;;11.75;59.72
70488;BME280;57976;48.174;16.370;2024-02-21T09:51:18;99876.30;;;11.82;60.07
70488;BME280;57976;48.174;16.370;2024-02-21T09:53:25;99868.30;;;11.89;59.42
70488;BME280;57976;48.174;16.370;2024-02-21T09:55:32;99868.06;;;11.91;59.34
70488;BME280;57976;48.174;16.370;2024-02-21T09:57:38;99861.54;;;11.93;59.59
70488;BME280;57976;48.174;16.370;2024-02-21T09:59:43;99869.48;;;12.00;58.83
70488;BME280;57976;48.174;16.370;2024-02-21T10:01:47;99865.36;;;12.06;58.19
70488;BME280;57976;48.174;16.370;2024-02-21T10:03:52;99862.77;;;12.11;58.56
70488;BME280;57976;48.174;16.370;2024-02-21T10:06:01;99861.70;;;12.20;58.94
70488;BME280;57976;48.174;16.370;2024-02-21T10:08:06;99859.65;;;12.30;58.41
70488;BME280;57976;48.174;16.370;2024-02-21T10:10:12;99863.52;;;12.41;58.49
70488;BME280;57976;48.174;16.370;2024-02-21T10:12:16;99857.03;;;12.53;57.68
70488;BME280;57976;48.174;16.370;2024-02-21T10:14:21;99857.86;;;12.70;56.99
70488;BME280;57976;48.174;16.370;2024-02-21T10:16:26;99853.42;;;12.84;56.85
70488;BME280;57976;48.174;16.370;2024-02-21T10:18:31;99853.33;;;12.98;55.83
70488;BME280;57976;48.174;16.370;2024-02-21T10:20:36;99847.41;;;13.09;55.83
70488;BME280;57976;48.174;16.370;2024-02-21T10:22:40;99852.92;;;13.17;54.92
70488;BME280;57976;48.174;16.370;2024-02-21T10:24:45;99862.61;;;13.26;54.21
70488;BME280;57976;48.174;16.370;2024-02-21T10:27:01;99858.00;;;13.22;52.67
70488;BME280;57976;48.174;16.370;2024-02-21T10:29:06;99844.81;;;13.18;53.61
70488;BME280;57976;48.174;16.370;2024-02-21T10:31:20;99838.57;;;13.18;54.20
70488;BME280;57976;48.174;16.370;2024-02-21T10:33:25;99849.23;;;13.23;53.69
70488;BME280;57976;48.174;16.370;2024-02-21T10:35:32;99843.92;;;13.26;53.50
70488;BME280;57976;48.174;16.370;2024-02-21T10:37:37;99847.35;;;13.29;53.56
70488;BME280;57976;48.174;16.370;2024-02-21T10:39:43;99839.84;;;13.34;53.61
70488;BME280;57976;48.174;16.370;2024-02-21T10:41:47;99836.96;;;13.38;53.02
70488;BME280;57976;48.174;16.370;2024-02-21T10:43:54;99835.69;;;13.34;52.43
70488;BME280;57976;48.174;16.370;2024-02-21T10:46:01;99826.35;;;13.34;53.04
70488;BME280;57976;48.174;16.370;2024-02-21T10:48:11;99815.31;;;13.36;52.66
70488;BME280;57976;48.174;16.370;2024-02-21T10:50:16;99814.08;;;13.35;52.91
70488;BME280;57976;48.174;16.370;2024-02-21T10:52:29;99812.46;;;13.34;52.96
70488;BME280;57976;48.174;16.370;2024-02-21T10:54:43;99816.92;;;13.31;52.99
70488;BME280;57976;48.174;16.370;2024-02-21T10:56:51;99826.27;;;13.27;51.76